sensor_id;sensor_type;location;lat;lon;timestamp;temperature;humidity
52471;DHT22;38382;53.160;7.026;2023-09-19T00:01:40;15.30;99.90
52471;DHT22;38382;53.160;7.026;2023-09-19T00:04:09;15.30;99.90
52471;DHT22;38382;53.160;7.026;2023-09-19T00:06:36;15.20;99.90
52471;DHT22;38382;53.160;7.026;2023-09-19T00:09:03;15.20;99.90
52471;DHT22;38382;53.160;7.026;2023-09-19T00:11:29;15.10;99.90
52471;DHT22;38382;53.160;7.026;2023-09-19T00:13:55;15.10;99.90
52471;DHT22;38382;53.160;7.026;2023-09-19T00:16:20;15.00;99.90
52471;DHT22;38382;53.160;7.026;2023-09-19T00:18:46;14.90;99.90
52471;DHT22;38382;53.160;7.026;2023-09-19T00:21:14;14.90;99.90
52471;DHT22;38382;53.160;7.026;2023-09-19T00:23:40;14.90;99.90
52471;DHT22;38382;53.160;7.026;2023-09-19T00:26:07;14.80;99.90
52471;DHT22;38382;53.160;7.026;2023-09-19T00:28:33;14.80;99.90
52471;DHT22;38382;53.160;7.026;2023-09-19T00:30:59;14.70;99.90
52471;DHT22;38382;53.160;7.026;2023-09-19T00:33:27;14.70;99.90
52471;DHT22;38382;53.160;7.026;2023-09-19T00:35:56;14.60;99.90
52471;DHT22;38382;53.160;7.026;2023-09-19T00:38:29;14.60;99.90
52471;DHT22;38382;53.160;7.026;2023-09-19T00:40:55;14.60;99.90
52471;DHT22;38382;53.160;7.026;2023-09-19T00:43:25;14.60;99.90
52471;DHT22;38382;53.160;7.026;2023-09-19T00:48:21;14.40;99.90
52471;DHT22;38382;53.160;7.026;2023-09-19T00:50:47;14.40;99.90
52471;DHT22;38382;53.160;7.026;2023-09-19T00:53:18;14.40;99.90
52471;DHT22;38382;53.160;7.026;2023-09-19T00:55:46;14.40;99.90
52471;DHT22;38382;53.160;7.026;2023-09-19T00:58:12;14.30;99.90
52471;DHT22;38382;53.160;7.026;2023-09-19T01:00:38;14.30;99.90
52471;DHT22;38382;53.160;7.026;2023-09-19T01:03:05;14.30;99.90
52471;DHT22;38382;53.160;7.026;2023-09-19T01:05:33;14.20;99.90
52471;DHT22;38382;53.160;7.026;2023-09-19T01:07:59;14.20;99.90
52471;DHT22;38382;53.160;7.026;2023-09-19T01:10:25;14.20;99.90
52471;DHT22;38382;53.160;7.026;2023-09-19T01:15:40;14.10;99.90
52471;DHT22;38382;53.160;7.026;2023-09-19T01:21:00;14.00;99.90
52471;DHT22;38382;53.160;7.026;2023-09-19T01:29:39;13.90;99.90
52471;DHT22;38382;53.160;7.026;2023-09-19T01:32:08;13.90;99.90
52471;DHT22;38382;53.160;7.026;2023-09-19T01:34:48;13.90;99.90
52471;DHT22;38382;53.160;7.026;2023-09-19T01:37:18;13.80;99.90
52471;DHT22;38382;53.160;7.026;2023-09-19T01:40:02;13.80;99.90
52471;DHT22;38382;53.160;7.026;2023-09-19T01:51:30;13.60;99.90
52471;DHT22;38382;53.160;7.026;2023-09-19T01:54:09;13.60;99.90
52471;DHT22;38382;53.160;7.026;2023-09-19T01:57:01;13.50;99.90
52471;DHT22;38382;53.160;7.026;2023-09-19T01:59:37;13.50;99.90
52471;DHT22;38382;53.160;7.026;2023-09-19T02:02:07;13.50;99.90
52471;DHT22;38382;53.160;7.026;2023-09-19T02:04:34;13.50;99.90
52471;DHT22;38382;53.160;7.026;2023-09-19T02:07:03;13.50;99.90
52471;DHT22;38382;53.160;7.026;2023-09-19T02:09:31;13.40;99.90
52471;DHT22;38382;53.160;7.026;2023-09-19T02:12:01;13.40;99.90
52471;DHT22;38382;53.160;7.026;2023-09-19T02:14:27;13.40;99.90
52471;DHT22;38382;53.160;7.026;2023-09-19T02:16:55;13.40;99.90
52471;DHT22;38382;53.160;7.026;2023-09-19T02:19:22;13.40;99.90
52471;DHT22;38382;53.160;7.026;2023-09-19T02:21:47;13.30;99.90
52471;DHT22;38382;53.160;7.026;2023-09-19T02:24:14;13.30;99.90
52471;DHT22;38382;53.160;7.026;2023-09-19T02:26:41;13.30;99.90
52471;DHT22;38382;53.160;7.026;2023-09-19T02:29:06;13.30;99.90
52471;DHT22;38382;53.160;7.026;2023-09-19T02:31:32;13.30;99.90
52471;DHT22;38382;53.160;7.026;2023-09-19T02:33:58;13.30;99.90
52471;DHT22;38382;53.160;7.026;2023-09-19T02:36:25;13.30;99.90
52471;DHT22;38382;53.160;7.026;2023-09-19T02:38:51;13.20;99.90
52471;DHT22;38382;53.160;7.026;2023-09-19T02:41:17;13.20;99.90
52471;DHT22;38382;53.160;7.026;2023-09-19T02:43:43;13.20;99.90
52471;DHT22;38382;53.160;7.026;2023-09-19T02:46:08;13.10;99.90
52471;DHT22;38382;53.160;7.026;2023-09-19T02:48:34;13.10;99.90
52471;DHT22;38382;53.160;7.026;2023-09-19T02:51:01;13.10;99.90
52471;DHT22;38382;53.160;7.026;2023-09-19T02:53:29;13.10;99.90
52471;DHT22;38382;53.160;7.026;2023-09-19T02:55:56;13.10;99.90
52471;DHT22;38382;53.160;7.026;2023-09-19T02:58:22;13.10;99.90
52471;DHT22;38382;53.160;7.026;2023-09-19T03:00:49;13.00;99.90
52471;DHT22;38382;53.160;7.026;2023-09-19T03:03:17;13.10;99.90
52471;DHT22;38382;53.160;7.026;2023-09-19T03:05:42;13.00;99.90
52471;DHT22;38382;53.160;7.026;2023-09-19T03:08:13;13.00;99.90
52471;DHT22;38382;53.160;7.026;2023-09-19T03:10:42;13.10;99.90
52471;DHT22;38382;53.160;7.026;2023-09-19T03:13:08;13.00;99.90
52471;DHT22;38382;53.160;7.026;2023-09-19T03:15:35;13.00;99.90
52471;DHT22;38382;53.160;7.026;2023-09-19T03:18:04;13.00;99.90
52471;DHT22;38382;53.160;7.026;2023-09-19T03:20:30;13.00;99.90
52471;DHT22;38382;53.160;7.026;2023-09-19T03:22:56;13.00;99.90
52471;DHT22;38382;53.160;7.026;2023-09-19T03:25:23;13.00;99.90
52471;DHT22;38382;53.160;7.026;2023-09-19T03:27:49;13.00;99.90
52471;DHT22;38382;53.160;7.026;2023-09-19T03:30:15;13.00;99.90
52471;DHT22;38382;53.160;7.026;2023-09-19T03:32:48;13.10;99.90
52471;DHT22;38382;53.160;7.026;2023-09-19T03:35:15;13.00;99.90
52471;DHT22;38382;53.160;7.026;2023-09-19T03:37:42;13.00;99.90
52471;DHT22;38382;53.160;7.026;2023-09-19T03:40:12;13.00;99.90
52471;DHT22;38382;53.160;7.026;2023-09-19T03:42:41;13.00;99.90
52471;DHT22;38382;53.160;7.026;2023-09-19T03:45:08;13.00;99.90
52471;DHT22;38382;53.160;7.026;2023-09-19T03:47:40;12.90;99.90
52471;DHT22;38382;53.160;7.026;2023-09-19T03:50:07;13.00;99.90
52471;DHT22;38382;53.160;7.026;2023-09-19T03:52:34;13.00;99.90
52471;DHT22;38382;53.160;7.026;2023-09-19T03:55:00;13.00;99.90
52471;DHT22;38382;53.160;7.026;2023-09-19T03:57:27;13.00;99.90
52471;DHT22;38382;53.160;7.026;2023-09-19T03:59:53;13.00;99.90
52471;DHT22;38382;53.160;7.026;2023-09-19T04:02:20;12.90;99.90
52471;DHT22;38382;53.160;7.026;2023-09-19T04:04:49;12.90;99.90
52471;DHT22;38382;53.160;7.026;2023-09-19T04:07:15;12.90;99.90
52471;DHT22;38382;53.160;7.026;2023-09-19T04:09:41;12.90;99.90
52471;DHT22;38382;53.160;7.026;2023-09-19T04:12:07;12.90;99.90
52471;DHT22;38382;53.160;7.026;2023-09-19T04:14:36;12.90;99.90
52471;DHT22;38382;53.160;7.026;2023-09-19T04:17:02;12.90;99.90
52471;DHT22;38382;53.160;7.026;2023-09-19T04:19:28;12.90;99.90
52471;DHT22;38382;53.160;7.026;2023-09-19T04:21:54;12.90;99.90
52471;DHT22;38382;53.160;7.026;2023-09-19T04:24:20;13.00;99.90
52471;DHT22;38382;53.160;7.026;2023-09-19T04:26:46;13.00;99.90
52471;DHT22;38382;53.160;7.026;2023-09-19T04:29:11;13.00;99.90
52471;DHT22;38382;53.160;7.026;2023-09-19T04:31:39;12.90;99.90
52471;DHT22;38382;53.160;7.026;2023-09-19T04:34:06;13.00;99.90
52471;DHT22;38382;53.160;7.026;2023-09-19T04:36:34;13.00;99.90
52471;DHT22;38382;53.160;7.026;2023-09-19T04:39:03;13.00;99.90
52471;DHT22;38382;53.160;7.026;2023-09-19T04:41:30;13.10;99.90
52471;DHT22;38382;53.160;7.026;2023-09-19T04:43:56;13.10;99.90
52471;DHT22;38382;53.160;7.026;2023-09-19T04:46:22;13.10;99.90
52471;DHT22;38382;53.160;7.026;2023-09-19T04:48:48;13.00;99.90
52471;DHT22;38382;53.160;7.026;2023-09-19T04:51:13;13.10;99.90
52471;DHT22;38382;53.160;7.026;2023-09-19T04:53:40;13.10;99.90
52471;DHT22;38382;53.160;7.026;2023-09-19T04:56:06;13.10;99.90
52471;DHT22;38382;53.160;7.026;2023-09-19T04:58:33;13.20;99.90
52471;DHT22;38382;53.160;7.026;2023-09-19T05:00:59;13.10;99.90
52471;DHT22;38382;53.160;7.026;2023-09-19T05:03:25;13.20;99.90
52471;DHT22;38382;53.160;7.026;2023-09-19T05:05:51;13.20;99.90
52471;DHT22;38382;53.160;7.026;2023-09-19T05:08:16;13.20;99.90
52471;DHT22;38382;53.160;7.026;2023-09-19T05:10:42;13.20;99.90
52471;DHT22;38382;53.160;7.026;2023-09-19T05:45:49;13.50;99.90
52471;DHT22;38382;53.160;7.026;2023-09-19T05:48:17;13.40;99.90
52471;DHT22;38382;53.160;7.026;2023-09-19T05:50:43;13.40;99.90
52471;DHT22;38382;53.160;7.026;2023-09-19T05:53:14;13.40;99.90
52471;DHT22;38382;53.160;7.026;2023-09-19T05:55:40;13.40;99.90
52471;DHT22;38382;53.160;7.026;2023-09-19T05:58:06;13.40;99.90
52471;DHT22;38382;53.160;7.026;2023-09-19T06:00:32;13.40;99.90
52471;DHT22;38382;53.160;7.026;2023-09-19T06:02:59;13.40;99.90
52471;DHT22;38382;53.160;7.026;2023-09-19T06:05:26;13.50;99.90
52471;DHT22;38382;53.160;7.026;2023-09-19T06:07:55;13.50;99.90
52471;DHT22;38382;53.160;7.026;2023-09-19T06:10:21;13.50;99.90
52471;DHT22;38382;53.160;7.026;2023-09-19T06:15:15;13.50;99.90
52471;DHT22;38382;53.160;7.026;2023-09-19T06:20:14;13.60;99.90
52471;DHT22;38382;53.160;7.026;2023-09-19T06:22:45;13.60;99.90
52471;DHT22;38382;53.160;7.026;2023-09-19T06:25:14;13.60;99.90
52471;DHT22;38382;53.160;7.026;2023-09-19T06:27:47;13.60;99.90
52471;DHT22;38382;53.160;7.026;2023-09-19T06:30:14;13.70;99.90
52471;DHT22;38382;53.160;7.026;2023-09-19T06:32:41;13.70;99.90
52471;DHT22;38382;53.160;7.026;2023-09-19T06:35:10;13.70;99.90
52471;DHT22;38382;53.160;7.026;2023-09-19T06:37:37;13.80;99.90
52471;DHT22;38382;53.160;7.026;2023-09-19T06:40:12;13.80;99.90
52471;DHT22;38382;53.160;7.026;2023-09-19T06:42:44;13.80;99.90
52471;DHT22;38382;53.160;7.026;2023-09-19T06:45:12;13.80;99.90
52471;DHT22;38382;53.160;7.026;2023-09-19T06:47:42;13.90;99.90
52471;DHT22;38382;53.160;7.026;2023-09-19T06:50:15;13.90;99.90
52471;DHT22;38382;53.160;7.026;2023-09-19T06:52:41;13.90;99.90
52471;DHT22;38382;53.160;7.026;2023-09-19T06:55:07;13.90;99.90
52471;DHT22;38382;53.160;7.026;2023-09-19T06:57:35;13.90;99.90
52471;DHT22;38382;53.160;7.026;2023-09-19T07:00:01;14.00;99.90
52471;DHT22;38382;53.160;7.026;2023-09-19T07:02:27;13.90;99.90
52471;DHT22;38382;53.160;7.026;2023-09-19T07:04:59;14.00;99.90
52471;DHT22;38382;53.160;7.026;2023-09-19T07:07:24;14.00;99.90
52471;DHT22;38382;53.160;7.026;2023-09-19T07:09:50;14.10;99.90
52471;DHT22;38382;53.160;7.026;2023-09-19T07:12:19;14.40;99.90
52471;DHT22;38382;53.160;7.026;2023-09-19T07:14:47;14.10;99.90
52471;DHT22;38382;53.160;7.026;2023-09-19T07:17:13;14.20;99.90
52471;DHT22;38382;53.160;7.026;2023-09-19T07:19:43;14.30;99.90
52471;DHT22;38382;53.160;7.026;2023-09-19T07:22:09;14.30;99.90
52471;DHT22;38382;53.160;7.026;2023-09-19T07:24:34;14.40;99.90
52471;DHT22;38382;53.160;7.026;2023-09-19T07:27:08;14.60;99.90
52471;DHT22;38382;53.160;7.026;2023-09-19T07:29:52;14.40;99.90
52471;DHT22;38382;53.160;7.026;2023-09-19T07:32:21;14.50;99.90
52471;DHT22;38382;53.160;7.026;2023-09-19T07:34:47;14.20;99.90
52471;DHT22;38382;53.160;7.026;2023-09-19T07:37:13;14.70;99.90
52471;DHT22;38382;53.160;7.026;2023-09-19T07:39:41;14.80;99.90
52471;DHT22;38382;53.160;7.026;2023-09-19T07:42:07;14.80;99.90
52471;DHT22;38382;53.160;7.026;2023-09-19T07:44:35;14.80;99.90
52471;DHT22;38382;53.160;7.026;2023-09-19T07:47:01;14.80;99.90
52471;DHT22;38382;53.160;7.026;2023-09-19T07:49:29;14.90;99.90
52471;DHT22;38382;53.160;7.026;2023-09-19T07:52:03;14.80;99.90
52471;DHT22;38382;53.160;7.026;2023-09-19T07:54:29;14.40;99.90
52471;DHT22;38382;53.160;7.026;2023-09-19T07:57:01;14.80;99.90
52471;DHT22;38382;53.160;7.026;2023-09-19T07:59:27;15.00;99.90
52471;DHT22;38382;53.160;7.026;2023-09-19T08:01:56;14.70;99.90
52471;DHT22;38382;53.160;7.026;2023-09-19T08:06:52;15.20;99.90
52471;DHT22;38382;53.160;7.026;2023-09-19T08:09:26;15.20;99.90
52471;DHT22;38382;53.160;7.026;2023-09-19T08:12:05;15.80;99.90
52471;DHT22;38382;53.160;7.026;2023-09-19T08:14:33;15.00;99.90
52471;DHT22;38382;53.160;7.026;2023-09-19T08:17:04;15.20;99.90
52471;DHT22;38382;53.160;7.026;2023-09-19T08:19:48;15.20;99.90
52471;DHT22;38382;53.160;7.026;2023-09-19T08:22:23;15.10;99.90
52471;DHT22;38382;53.160;7.026;2023-09-19T08:24:58;15.20;99.90
52471;DHT22;38382;53.160;7.026;2023-09-19T08:27:24;15.10;99.90
52471;DHT22;38382;53.160;7.026;2023-09-19T08:29:55;15.30;99.90
52471;DHT22;38382;53.160;7.026;2023-09-19T08:32:26;16.00;99.90
52471;DHT22;38382;53.160;7.026;2023-09-19T08:35:04;15.00;99.90
52471;DHT22;38382;53.160;7.026;2023-09-19T08:37:42;15.00;99.90
52471;DHT22;38382;53.160;7.026;2023-09-19T08:40:17;15.80;99.90
52471;DHT22;38382;53.160;7.026;2023-09-19T08:42:50;15.90;99.90
52471;DHT22;38382;53.160;7.026;2023-09-19T08:45:26;16.20;99.90
52471;DHT22;38382;53.160;7.026;2023-09-19T08:50:55;16.40;99.90
52471;DHT22;38382;53.160;7.026;2023-09-19T08:53:54;16.30;99.90
52471;DHT22;38382;53.160;7.026;2023-09-19T08:56:29;16.70;99.90
52471;DHT22;38382;53.160;7.026;2023-09-19T08:59:17;16.80;99.90
52471;DHT22;38382;53.160;7.026;2023-09-19T09:01:49;16.90;99.90
52471;DHT22;38382;53.160;7.026;2023-09-19T09:04:34;16.90;99.90
52471;DHT22;38382;53.160;7.026;2023-09-19T09:07:01;17.00;99.90
52471;DHT22;38382;53.160;7.026;2023-09-19T09:09:44;17.10;99.90
52471;DHT22;38382;53.160;7.026;2023-09-19T09:12:29;17.10;99.90
52471;DHT22;38382;53.160;7.026;2023-09-19T09:15:01;17.10;99.90
52471;DHT22;38382;53.160;7.026;2023-09-19T09:17:29;16.50;99.90
52471;DHT22;38382;53.160;7.026;2023-09-19T09:19:56;17.60;99.90
52471;DHT22;38382;53.160;7.026;2023-09-19T09:22:22;17.10;99.90
52471;DHT22;38382;53.160;7.026;2023-09-19T09:24:53;17.20;99.90
52471;DHT22;38382;53.160;7.026;2023-09-19T09:27:29;16.80;99.90
52471;DHT22;38382;53.160;7.026;2023-09-19T09:30:04;17.30;99.90
52471;DHT22;38382;53.160;7.026;2023-09-19T09:32:33;17.50;99.90
52471;DHT22;38382;53.160;7.026;2023-09-19T09:35:15;17.50;99.90
52471;DHT22;38382;53.160;7.026;2023-09-19T09:37:46;17.60;99.90
52471;DHT22;38382;53.160;7.026;2023-09-19T09:40:14;17.60;99.90
52471;DHT22;38382;53.160;7.026;2023-09-19T09:42:40;17.80;99.90
52471;DHT22;38382;53.160;7.026;2023-09-19T09:45:20;17.80;99.90
52471;DHT22;38382;53.160;7.026;2023-09-19T09:48:14;17.90;99.90
52471;DHT22;38382;53.160;7.026;2023-09-19T09:50:48;17.40;99.90
52471;DHT22;38382;53.160;7.026;2023-09-19T09:53:24;18.30;99.90
52471;DHT22;38382;53.160;7.026;2023-09-19T09:56:08;18.50;99.90
52471;DHT22;38382;53.160;7.026;2023-09-19T09:59:00;19.00;99.90
52471;DHT22;38382;53.160;7.026;2023-09-19T10:02:01;18.90;99.90
52471;DHT22;38382;53.160;7.026;2023-09-19T10:04:44;18.80;99.90
52471;DHT22;38382;53.160;7.026;2023-09-19T10:07:51;18.60;99.90
52471;DHT22;38382;53.160;7.026;2023-09-19T10:10:56;18.70;99.90
52471;DHT22;38382;53.160;7.026;2023-09-19T10:20:12;18.60;99.90
52471;DHT22;38382;53.160;7.026;2023-09-19T10:23:10;19.00;99.90
52471;DHT22;38382;53.160;7.026;2023-09-19T10:25:53;19.20;99.90
52471;DHT22;38382;53.160;7.026;2023-09-19T10:28:46;19.20;99.90
52471;DHT22;38382;53.160;7.026;2023-09-19T10:31:18;19.40;99.90
52471;DHT22;38382;53.160;7.026;2023-09-19T10:33:53;19.50;99.90
52471;DHT22;38382;53.160;7.026;2023-09-19T10:36:39;19.60;99.90
52471;DHT22;38382;53.160;7.026;2023-09-19T10:39:08;19.60;99.90
52471;DHT22;38382;53.160;7.026;2023-09-19T10:41:37;19.70;99.90
52471;DHT22;38382;53.160;7.026;2023-09-19T10:44:19;19.80;99.90
52471;DHT22;38382;53.160;7.026;2023-09-19T10:47:00;19.60;99.90
52471;DHT22;38382;53.160;7.026;2023-09-19T10:49:26;19.60;99.90
52471;DHT22;38382;53.160;7.026;2023-09-19T10:52:19;19.80;99.90
52471;DHT22;38382;53.160;7.026;2023-09-19T10:55:05;19.90;99.90
52471;DHT22;38382;53.160;7.026;2023-09-19T10:57:32;20.40;99.90
52471;DHT22;38382;53.160;7.026;2023-09-19T11:00:03;19.80;99.90
52471;DHT22;38382;53.160;7.026;2023-09-19T11:08:58;20.00;99.90
52471;DHT22;38382;53.160;7.026;2023-09-19T11:14:15;19.80;99.90
52471;DHT22;38382;53.160;7.026;2023-09-19T11:30:54;20.10;99.90
52471;DHT22;38382;53.160;7.026;2023-09-19T11:33:27;19.80;99.90
52471;DHT22;38382;53.160;7.026;2023-09-19T11:36:15;20.00;99.90
52471;DHT22;38382;53.160;7.026;2023-09-19T11:41:36;20.00;99.90
52471;DHT22;38382;53.160;7.026;2023-09-19T11:46:33;19.90;99.90
52471;DHT22;38382;53.160;7.026;2023-09-19T11:49:29;19.90;99.90
52471;DHT22;38382;53.160;7.026;2023-09-19T11:52:03;20.30;99.90
52471;DHT22;38382;53.160;7.026;2023-09-19T11:54:35;20.90;99.90
52471;DHT22;38382;53.160;7.026;2023-09-19T11:57:09;20.60;99.90
52471;DHT22;38382;53.160;7.026;2023-09-19T11:59:41;20.50;99.90
52471;DHT22;38382;53.160;7.026;2023-09-19T12:02:07;20.00;99.90
52471;DHT22;38382;53.160;7.026;2023-09-19T12:04:56;20.00;99.90
52471;DHT22;38382;53.160;7.026;2023-09-19T12:07:22;19.90;99.90
52471;DHT22;38382;53.160;7.026;2023-09-19T12:10:05;19.80;99.90
52471;DHT22;38382;53.160;7.026;2023-09-19T12:12:36;18.90;99.90
52471;DHT22;38382;53.160;7.026;2023-09-19T12:15:05;19.70;99.90
52471;DHT22;38382;53.160;7.026;2023-09-19T12:17:58;19.70;99.90
52471;DHT22;38382;53.160;7.026;2023-09-19T12:20:26;19.70;99.90
52471;DHT22;38382;53.160;7.026;2023-09-19T12:23:13;20.60;99.90
52471;DHT22;38382;53.160;7.026;2023-09-19T12:25:43;19.60;99.90
52471;DHT22;38382;53.160;7.026;2023-09-19T12:28:14;19.50;99.90
52471;DHT22;38382;53.160;7.026;2023-09-19T12:30:42;19.40;99.90
52471;DHT22;38382;53.160;7.026;2023-09-19T12:33:18;19.20;99.90
52471;DHT22;38382;53.160;7.026;2023-09-19T12:35:51;19.40;99.90
52471;DHT22;38382;53.160;7.026;2023-09-19T12:38:31;19.40;99.90
52471;DHT22;38382;53.160;7.026;2023-09-19T12:41:01;19.40;99.90
52471;DHT22;38382;53.160;7.026;2023-09-19T12:43:29;19.30;99.90
52471;DHT22;38382;53.160;7.026;2023-09-19T12:45:58;19.20;99.90
52471;DHT22;38382;53.160;7.026;2023-09-19T12:48:26;19.10;99.90
52471;DHT22;38382;53.160;7.026;2023-09-19T12:51:12;19.00;99.90
52471;DHT22;38382;53.160;7.026;2023-09-19T12:53:40;18.90;99.90
52471;DHT22;38382;53.160;7.026;2023-09-19T12:56:08;18.80;99.90
52471;DHT22;38382;53.160;7.026;2023-09-19T12:58:54;18.80;99.90
52471;DHT22;38382;53.160;7.026;2023-09-19T13:01:23;18.90;99.90
52471;DHT22;38382;53.160;7.026;2023-09-19T13:04:18;19.10;99.90
52471;DHT22;38382;53.160;7.026;2023-09-19T13:06:53;18.80;99.90
52471;DHT22;38382;53.160;7.026;2023-09-19T13:09:21;18.20;99.90
52471;DHT22;38382;53.160;7.026;2023-09-19T13:11:48;19.20;99.90
52471;DHT22;38382;53.160;7.026;2023-09-19T13:14:24;19.30;99.90
52471;DHT22;38382;53.160;7.026;2023-09-19T13:17:04;19.20;99.90
52471;DHT22;38382;53.160;7.026;2023-09-19T13:24:50;19.00;99.90
52471;DHT22;38382;53.160;7.026;2023-09-19T13:27:17;18.90;99.90
52471;DHT22;38382;53.160;7.026;2023-09-19T13:29:42;18.80;99.90
52471;DHT22;38382;53.160;7.026;2023-09-19T13:32:08;18.80;99.90
52471;DHT22;38382;53.160;7.026;2023-09-19T13:34:37;18.80;99.90
52471;DHT22;38382;53.160;7.026;2023-09-19T13:37:03;18.70;99.90
52471;DHT22;38382;53.160;7.026;2023-09-19T13:39:30;18.70;99.90
52471;DHT22;38382;53.160;7.026;2023-09-19T13:41:56;18.60;99.90
52471;DHT22;38382;53.160;7.026;2023-09-19T13:44:22;18.60;99.90
52471;DHT22;38382;53.160;7.026;2023-09-19T13:46:48;18.50;99.90
52471;DHT22;38382;53.160;7.026;2023-09-19T13:49:14;18.50;99.90
52471;DHT22;38382;53.160;7.026;2023-09-19T13:51:40;18.50;99.90
52471;DHT22;38382;53.160;7.026;2023-09-19T13:54:09;18.50;99.90
52471;DHT22;38382;53.160;7.026;2023-09-19T13:56:35;18.40;99.90
52471;DHT22;38382;53.160;7.026;2023-09-19T13:59:02;18.40;99.90
52471;DHT22;38382;53.160;7.026;2023-09-19T14:01:27;18.40;99.90
52471;DHT22;38382;53.160;7.026;2023-09-19T14:03:53;18.40;99.90
52471;DHT22;38382;53.160;7.026;2023-09-19T14:06:22;18.30;99.90
52471;DHT22;38382;53.160;7.026;2023-09-19T14:08:48;18.30;99.90
52471;DHT22;38382;53.160;7.026;2023-09-19T14:11:15;18.20;99.90
52471;DHT22;38382;53.160;7.026;2023-09-19T14:13:42;18.10;99.90
52471;DHT22;38382;53.160;7.026;2023-09-19T14:16:12;18.10;99.90
52471;DHT22;38382;53.160;7.026;2023-09-19T14:18:38;18.10;99.90
52471;DHT22;38382;53.160;7.026;2023-09-19T14:21:05;18.10;99.90
52471;DHT22;38382;53.160;7.026;2023-09-19T14:23:35;18.10;99.90
52471;DHT22;38382;53.160;7.026;2023-09-19T14:49:49;18.50;99.90
52471;DHT22;38382;53.160;7.026;2023-09-19T14:52:36;18.30;99.90
52471;DHT22;38382;53.160;7.026;2023-09-19T14:55:02;18.60;99.90
52471;DHT22;38382;53.160;7.026;2023-09-19T14:57:28;18.70;99.90
52471;DHT22;38382;53.160;7.026;2023-09-19T14:59:55;18.60;99.90
52471;DHT22;38382;53.160;7.026;2023-09-19T15:02:20;18.70;99.90
52471;DHT22;38382;53.160;7.026;2023-09-19T15:04:46;18.60;99.90
52471;DHT22;38382;53.160;7.026;2023-09-19T15:07:16;18.60;99.90
52471;DHT22;38382;53.160;7.026;2023-09-19T15:09:43;18.70;99.90
52471;DHT22;38382;53.160;7.026;2023-09-19T15:12:09;18.70;99.90
52471;DHT22;38382;53.160;7.026;2023-09-19T15:14:36;18.60;99.90
52471;DHT22;38382;53.160;7.026;2023-09-19T15:17:02;18.60;99.90
52471;DHT22;38382;53.160;7.026;2023-09-19T15:19:30;18.60;99.90
52471;DHT22;38382;53.160;7.026;2023-09-19T15:36:47;18.50;99.90
52471;DHT22;38382;53.160;7.026;2023-09-19T15:42:57;18.20;99.90
52471;DHT22;38382;53.160;7.026;2023-09-19T15:45:24;18.30;99.90
52471;DHT22;38382;53.160;7.026;2023-09-19T15:47:51;18.20;99.90
52471;DHT22;38382;53.160;7.026;2023-09-19T15:50:17;18.10;99.90
52471;DHT22;38382;53.160;7.026;2023-09-19T15:52:43;18.00;99.90
52471;DHT22;38382;53.160;7.026;2023-09-19T16:03:03;17.80;99.90
52471;DHT22;38382;53.160;7.026;2023-09-19T16:11:45;17.80;99.90
52471;DHT22;38382;53.160;7.026;2023-09-19T16:14:59;17.80;99.90
52471;DHT22;38382;53.160;7.026;2023-09-19T16:28:41;17.90;99.90
52471;DHT22;38382;53.160;7.026;2023-09-19T16:31:08;17.90;99.90
52471;DHT22;38382;53.160;7.026;2023-09-19T16:34:00;17.90;99.90
52471;DHT22;38382;53.160;7.026;2023-09-19T16:36:27;17.20;99.90
52471;DHT22;38382;53.160;7.026;2023-09-19T16:38:53;18.00;99.90
52471;DHT22;38382;53.160;7.026;2023-09-19T16:41:20;18.00;99.90
52471;DHT22;38382;53.160;7.026;2023-09-19T16:43:46;17.90;99.90
52471;DHT22;38382;53.160;7.026;2023-09-19T16:46:13;17.90;99.90
52471;DHT22;38382;53.160;7.026;2023-09-19T16:48:50;18.00;99.90
52471;DHT22;38382;53.160;7.026;2023-09-19T16:51:19;17.90;99.90
52471;DHT22;38382;53.160;7.026;2023-09-19T16:53:51;17.90;99.90
52471;DHT22;38382;53.160;7.026;2023-09-19T16:56:20;17.80;99.90
52471;DHT22;38382;53.160;7.026;2023-09-19T16:58:48;17.80;99.90
52471;DHT22;38382;53.160;7.026;2023-09-19T17:01:24;17.70;99.90
52471;DHT22;38382;53.160;7.026;2023-09-19T17:03:50;17.70;99.90
52471;DHT22;38382;53.160;7.026;2023-09-19T17:09:56;18.20;99.90
52471;DHT22;38382;53.160;7.026;2023-09-19T17:12:24;17.60;99.90
52471;DHT22;38382;53.160;7.026;2023-09-19T17:18:40;17.30;99.90
52471;DHT22;38382;53.160;7.026;2023-09-19T17:21:08;16.90;99.90
52471;DHT22;38382;53.160;7.026;2023-09-19T17:23:42;17.30;99.90
52471;DHT22;38382;53.160;7.026;2023-09-19T17:26:10;17.20;99.90
52471;DHT22;38382;53.160;7.026;2023-09-19T17:28:46;17.20;99.90
52471;DHT22;38382;53.160;7.026;2023-09-19T17:31:21;17.20;99.90
52471;DHT22;38382;53.160;7.026;2023-09-19T17:33:50;17.00;99.90
52471;DHT22;38382;53.160;7.026;2023-09-19T17:36:24;16.80;99.90
52471;DHT22;38382;53.160;7.026;2023-09-19T17:38:56;17.10;99.90
52471;DHT22;38382;53.160;7.026;2023-09-19T17:41:25;17.10;99.90
52471;DHT22;38382;53.160;7.026;2023-09-19T17:43:53;17.20;99.90
52471;DHT22;38382;53.160;7.026;2023-09-19T17:46:19;17.10;99.90
52471;DHT22;38382;53.160;7.026;2023-09-19T17:48:48;17.20;99.90
52471;DHT22;38382;53.160;7.026;2023-09-19T17:51:15;17.20;99.90
52471;DHT22;38382;53.160;7.026;2023-09-19T17:54:22;17.10;99.90
52471;DHT22;38382;53.160;7.026;2023-09-19T17:56:49;17.10;99.90
52471;DHT22;38382;53.160;7.026;2023-09-19T17:59:15;17.20;99.90
52471;DHT22;38382;53.160;7.026;2023-09-19T18:01:57;17.50;99.90
52471;DHT22;38382;53.160;7.026;2023-09-19T18:04:23;17.10;99.90
52471;DHT22;38382;53.160;7.026;2023-09-19T18:06:48;17.20;99.90
52471;DHT22;38382;53.160;7.026;2023-09-19T18:09:14;17.20;99.90
52471;DHT22;38382;53.160;7.026;2023-09-19T18:12:19;17.10;99.90
52471;DHT22;38382;53.160;7.026;2023-09-19T18:14:45;17.40;99.90
52471;DHT22;38382;53.160;7.026;2023-09-19T18:17:10;17.10;99.90
52471;DHT22;38382;53.160;7.026;2023-09-19T18:19:50;16.30;99.90
52471;DHT22;38382;53.160;7.026;2023-09-19T18:22:26;17.00;99.90
52471;DHT22;38382;53.160;7.026;2023-09-19T18:25:09;17.00;99.90
52471;DHT22;38382;53.160;7.026;2023-09-19T18:31:09;16.90;99.90
52471;DHT22;38382;53.160;7.026;2023-09-19T18:33:34;16.80;99.90
52471;DHT22;38382;53.160;7.026;2023-09-19T18:36:07;16.70;99.90
52471;DHT22;38382;53.160;7.026;2023-09-19T18:38:42;16.70;99.90
52471;DHT22;38382;53.160;7.026;2023-09-19T18:41:11;15.90;99.90
52471;DHT22;38382;53.160;7.026;2023-09-19T18:43:37;16.60;99.90
52471;DHT22;38382;53.160;7.026;2023-09-19T18:49:23;16.50;99.90
52471;DHT22;38382;53.160;7.026;2023-09-19T18:51:49;16.40;99.90
52471;DHT22;38382;53.160;7.026;2023-09-19T18:54:15;16.40;99.90
52471;DHT22;38382;53.160;7.026;2023-09-19T19:03:45;16.20;99.90
52471;DHT22;38382;53.160;7.026;2023-09-19T19:26:25;15.70;99.90
52471;DHT22;38382;53.160;7.026;2023-09-19T19:43:31;15.40;99.90